createdAt,value
2019-02-17T00:02:00.476Z,124.67
2019-02-17T00:04:30.484Z,133.43
2019-02-17T00:07:00.672Z,131.63
2019-02-17T00:09:30.957Z,124.70
2019-02-17T00:12:01.053Z,125.87
2019-02-17T00:14:31.248Z,129.83
2019-02-17T00:17:01.400Z,129.77
2019-02-17T00:19:31.557Z,134.27
2019-02-17T00:22:03.264Z,134.43
2019-02-17T00:24:33.352Z,136.43
2019-02-17T00:27:03.479Z,136.13
2019-02-17T00:29:33.665Z,129.47
2019-02-17T00:32:03.832Z,134.33
2019-02-17T00:34:33.979Z,125.67
2019-02-17T00:37:04.144Z,133.93
2019-02-17T00:39:34.363Z,127.93
2019-02-17T00:42:04.489Z,135.70
2019-02-17T00:44:34.632Z,129.10
2019-02-17T00:47:05.749Z,124.50
2019-02-17T00:49:38.261Z,123.60
2019-02-17T00:52:08.342Z,125.87
2019-02-17T00:54:38.323Z,129.07
2019-02-17T00:57:08.314Z,123.33
2019-02-17T00:59:38.355Z,124.40
2019-02-17T01:02:08.478Z,124.20
2019-02-17T01:04:38.676Z,125.53
2019-02-17T01:07:09.120Z,123.57
2019-02-17T01:09:39.164Z,125.53
2019-02-17T01:12:09.063Z,122.60
2019-02-17T01:14:39.307Z,122.47
2019-02-17T01:17:09.553Z,125.13
2019-02-17T01:19:39.624Z,143.97
2019-02-17T01:22:09.831Z,134.03
2019-02-17T01:24:40.108Z,136.23
2019-02-17T01:27:10.321Z,131.93
2019-02-17T01:29:40.485Z,136.23
2019-02-17T01:32:10.712Z,127.73
2019-02-17T01:34:40.984Z,146.27
2019-02-17T01:37:11.083Z,129.30
2019-02-17T01:39:42.608Z,126.20
2019-02-17T01:42:12.757Z,125.60
2019-02-17T01:44:42.864Z,126.13
2019-02-17T01:47:12.873Z,130.60
2019-02-17T01:49:43.051Z,135.77
2019-02-17T01:52:13.311Z,126.47
2019-02-17T01:54:43.384Z,125.93
2019-02-17T01:57:13.452Z,124.00
2019-02-17T01:59:43.393Z,122.63
2019-02-17T02:02:13.403Z,125.63
2019-02-17T02:04:43.575Z,125.80
2019-02-17T02:07:13.755Z,133.10
2019-02-17T02:09:43.943Z,125.33
2019-02-17T02:12:14.148Z,125.27
2019-02-17T02:14:44.319Z,126.47
2019-02-17T02:17:14.456Z,121.47
2019-02-17T02:19:45.131Z,129.43
2019-02-17T02:22:15.335Z,119.20
2019-02-17T02:24:45.284Z,117.83
2019-02-17T02:27:15.496Z,123.73
2019-02-17T02:29:45.432Z,121.27
2019-02-17T02:32:15.606Z,126.53
2019-02-17T02:34:45.884Z,124.47
2019-02-17T02:37:15.988Z,120.50
2019-02-17T02:39:46.126Z,124.00
2019-02-17T02:42:16.291Z,127.33
2019-02-17T02:44:48.631Z,132.17
2019-02-17T02:47:18.127Z,126.43
2019-02-17T02:49:48.441Z,122.27
2019-02-17T02:52:18.657Z,121.43
2019-02-17T02:54:48.654Z,118.80
2019-02-17T02:57:18.896Z,119.57
2019-02-17T02:59:52.390Z,121.63
2019-02-17T03:02:22.067Z,121.50
2019-02-17T03:04:52.241Z,122.97
2019-02-17T03:07:22.810Z,120.50
2019-02-17T03:09:52.913Z,128.33
2019-02-17T03:12:23.064Z,120.60
2019-02-17T03:14:53.255Z,120.57
2019-02-17T03:17:23.495Z,124.57
2019-02-17T03:19:53.523Z,132.27
2019-02-17T03:22:24.512Z,128.43
2019-02-17T03:24:54.608Z,130.30
2019-02-17T03:27:24.887Z,124.13
2019-02-17T03:30:04.393Z,129.87
2019-02-17T03:32:26.827Z,117.90
2019-02-17T03:34:57.113Z,117.03
2019-02-17T03:37:27.219Z,129.43
2019-02-17T03:39:57.548Z,120.73
2019-02-17T03:42:27.644Z,121.33
2019-02-17T03:44:57.820Z,119.17
2019-02-17T03:47:27.946Z,130.90
2019-02-17T03:49:58.091Z,127.30
2019-02-17T03:52:28.243Z,123.37
2019-02-17T03:54:58.299Z,134.17
2019-02-17T03:57:28.398Z,130.90
2019-02-17T03:59:58.476Z,128.83
2019-02-17T04:02:28.527Z,129.57
2019-02-17T04:04:58.592Z,123.57
2019-02-17T04:07:28.725Z,122.97
2019-02-17T04:09:58.891Z,130.33
2019-02-17T04:12:28.876Z,116.00
2019-02-17T04:14:58.874Z,123.23
2019-02-17T04:17:28.967Z,130.33
2019-02-17T04:19:59.059Z,126.10
2019-02-17T04:22:29.310Z,126.97
2019-02-17T04:24:59.393Z,116.57
2019-02-17T04:27:29.752Z,124.80
2019-02-17T04:30:00.081Z,120.77
2019-02-17T04:32:31.431Z,120.27
2019-02-17T04:35:01.549Z,118.50
2019-02-17T04:37:31.859Z,111.13
2019-02-17T04:40:02.020Z,119.83
2019-02-17T04:42:33.263Z,113.20
2019-02-17T04:45:03.375Z,114.17
2019-02-17T04:47:34.376Z,114.97
2019-02-17T04:50:04.843Z,114.53
2019-02-17T04:52:34.936Z,115.70
2019-02-17T04:55:05.140Z,121.07
2019-02-17T04:57:35.311Z,114.10
2019-02-17T05:00:06.272Z,117.53
2019-02-17T05:02:36.403Z,113.50
2019-02-17T05:05:06.702Z,122.77
2019-02-17T05:07:36.844Z,112.90
2019-02-17T05:10:07.389Z,110.53
2019-02-17T05:12:37.539Z,114.47
2019-02-17T05:15:08.200Z,117.90
2019-02-17T05:17:38.281Z,116.23
2019-02-17T05:20:08.376Z,111.67
2019-02-17T05:22:39.404Z,110.30
2019-02-17T05:25:09.950Z,109.40
2019-02-17T05:27:40.054Z,118.90
2019-02-17T05:30:10.245Z,111.63
2019-02-17T05:32:40.333Z,117.13
2019-02-17T05:35:10.471Z,112.10
2019-02-17T05:37:40.626Z,117.97
2019-02-17T05:40:10.741Z,118.03
2019-02-17T05:42:40.757Z,114.03
2019-02-17T05:45:10.797Z,118.40
2019-02-17T05:47:40.985Z,118.13
2019-02-17T05:50:11.176Z,112.67
2019-02-17T05:52:41.359Z,116.97
2019-02-17T05:55:11.635Z,113.67
2019-02-17T05:57:41.779Z,113.43
2019-02-17T06:00:13.336Z,110.60
2019-02-17T06:02:43.425Z,114.40
2019-02-17T06:05:13.379Z,113.23
2019-02-17T06:07:43.365Z,120.87
2019-02-17T06:10:13.689Z,123.80
2019-02-17T06:12:43.862Z,122.77
2019-02-17T06:15:14.106Z,124.00
2019-02-17T06:17:44.266Z,116.67
2019-02-17T06:20:14.440Z,117.10
2019-02-17T06:22:44.649Z,111.17
2019-02-17T06:25:14.620Z,111.43
2019-02-17T06:27:44.901Z,110.17
2019-02-17T06:30:16.083Z,114.00
2019-02-17T06:32:46.219Z,109.33
2019-02-17T06:35:16.513Z,111.53
2019-02-17T06:37:46.647Z,116.87
2019-02-17T06:40:16.721Z,114.87
2019-02-17T06:42:46.940Z,119.03
2019-02-17T06:45:19.521Z,122.03
2019-02-17T06:47:48.874Z,122.37
2019-02-17T06:50:19.347Z,115.53
2019-02-17T06:52:50.408Z,110.27
2019-02-17T06:55:37.923Z,110.83
2019-02-17T06:58:07.956Z,108.13
2019-02-17T07:00:43.908Z,111.50
2019-02-17T07:03:14.479Z,110.03
2019-02-17T07:06:06.663Z,111.43
2019-02-17T07:08:36.849Z,107.87
2019-02-17T07:11:07.271Z,110.53
2019-02-17T07:13:37.355Z,109.73
2019-02-17T07:16:07.451Z,107.03
2019-02-17T07:18:37.620Z,109.50
2019-02-17T07:21:07.830Z,109.97
2019-02-17T07:23:37.898Z,112.87
2019-02-17T07:26:08.127Z,106.93
2019-02-17T07:28:38.308Z,114.50
2019-02-17T07:31:08.431Z,108.57
2019-02-17T07:33:38.561Z,108.70
2019-02-17T07:36:08.673Z,105.67
2019-02-17T07:38:38.854Z,109.63
2019-02-17T07:41:08.901Z,119.83
2019-02-17T07:43:39.081Z,106.53
2019-02-17T07:46:09.249Z,107.63
2019-02-17T07:48:39.388Z,121.73
2019-02-17T07:51:09.503Z,116.80
2019-02-17T07:53:39.719Z,111.33
2019-02-17T07:56:09.915Z,108.57
2019-02-17T07:58:40.111Z,137.27
2019-02-17T08:01:10.389Z,118.33
2019-02-17T08:03:40.303Z,125.17
2019-02-17T08:06:10.448Z,110.37
2019-02-17T08:08:40.499Z,109.60
2019-02-17T08:11:10.709Z,112.23
2019-02-17T08:13:41.053Z,124.17
2019-02-17T08:16:11.124Z,116.77
2019-02-17T08:18:41.225Z,112.20
2019-02-17T08:21:11.512Z,114.53
2019-02-17T08:23:41.914Z,116.03
2019-02-17T08:26:12.041Z,120.40
2019-02-17T08:28:42.700Z,120.83
2019-02-17T08:31:13.200Z,115.03
2019-02-17T08:33:43.383Z,118.60
2019-02-17T08:36:13.513Z,122.20
2019-02-17T08:38:43.680Z,116.33
2019-02-17T08:41:13.788Z,119.73
2019-02-17T08:43:44.130Z,120.17
2019-02-17T08:46:14.352Z,118.47
2019-02-17T08:48:44.559Z,118.67
2019-02-17T08:51:14.609Z,119.23
2019-02-17T08:53:44.955Z,120.53
2019-02-17T08:56:15.126Z,123.90
2019-02-17T08:58:45.173Z,121.30
2019-02-17T09:01:15.079Z,125.57
2019-02-17T09:03:45.243Z,128.33
2019-02-17T09:06:15.498Z,122.50
2019-02-17T09:08:45.639Z,127.90
2019-02-17T09:11:16.796Z,127.13
2019-02-17T09:13:47.020Z,121.80
2019-02-17T09:16:17.191Z,130.60
2019-02-17T09:18:47.579Z,124.93
2019-02-17T09:21:17.630Z,126.90
2019-02-17T09:23:47.815Z,126.53
2019-02-17T09:26:18.032Z,128.17
2019-02-17T09:28:48.165Z,127.77
2019-02-17T09:31:18.442Z,128.40
2019-02-17T09:33:52.516Z,125.30
2019-02-17T09:36:22.620Z,125.53
2019-02-17T09:38:52.743Z,125.67
2019-02-17T09:41:22.863Z,124.47
2019-02-17T09:43:53.001Z,125.87
2019-02-17T09:46:23.221Z,124.27
2019-02-17T09:48:53.247Z,132.23
2019-02-17T09:51:23.696Z,131.73
2019-02-17T09:53:53.786Z,122.97
2019-02-17T09:56:23.880Z,131.73
2019-02-17T09:58:54.057Z,128.10
2019-02-17T10:01:24.276Z,131.20
2019-02-17T10:03:54.681Z,126.70
2019-02-17T10:06:24.795Z,130.43
2019-02-17T10:08:54.947Z,129.33
2019-02-17T10:11:25.081Z,129.43
2019-02-17T10:13:55.060Z,128.63
2019-02-17T10:16:25.031Z,132.13
2019-02-17T10:18:55.023Z,124.70
2019-02-17T10:21:25.484Z,124.40
2019-02-17T10:23:55.719Z,127.73
2019-02-17T10:26:25.996Z,127.10
2019-02-17T10:28:56.216Z,129.97
2019-02-17T10:31:26.380Z,126.00
2019-02-17T10:33:56.487Z,130.20
2019-02-17T10:36:26.608Z,127.57
2019-02-17T10:38:58.595Z,129.07
2019-02-17T10:41:28.696Z,126.97
2019-02-17T10:43:58.891Z,123.20
2019-02-17T10:46:29.041Z,127.23
2019-02-17T10:48:59.180Z,128.00
2019-02-17T10:51:30.399Z,127.40
2019-02-17T10:54:00.854Z,128.20
2019-02-17T10:56:32.699Z,128.13
2019-02-17T10:59:02.904Z,129.93
2019-02-17T11:01:33.303Z,127.83
2019-02-17T11:04:11.566Z,128.67
2019-02-17T11:06:42.044Z,129.80
2019-02-17T11:09:23.091Z,131.77
2019-02-17T11:11:53.802Z,134.23
2019-02-17T11:14:24.827Z,132.37
2019-02-17T11:16:55.614Z,129.43
2019-02-17T11:19:26.777Z,131.03
2019-02-17T11:21:57.125Z,128.53
2019-02-17T11:24:27.371Z,134.23
2019-02-17T11:26:57.505Z,132.40
2019-02-17T11:29:27.647Z,145.00
2019-02-17T11:31:57.998Z,134.47
2019-02-17T11:34:29.010Z,127.37
2019-02-17T11:36:59.007Z,127.50
2019-02-17T11:39:29.194Z,131.37
2019-02-17T11:41:59.252Z,134.33
2019-02-17T11:44:31.409Z,127.00
2019-02-17T11:47:01.163Z,130.87
2019-02-17T11:49:31.376Z,132.33
2019-02-17T11:52:01.460Z,134.10
2019-02-17T11:54:31.640Z,129.60
2019-02-17T11:57:01.830Z,129.37
2019-02-17T11:59:32.080Z,127.93
2019-02-17T12:02:02.265Z,131.83
2019-02-17T12:04:32.271Z,131.53
2019-02-17T12:07:02.522Z,138.87
2019-02-17T12:09:32.711Z,132.30
2019-02-17T12:12:02.964Z,126.67
2019-02-17T12:14:34.017Z,132.00
2019-02-17T12:17:04.248Z,141.73
2019-02-17T12:19:35.433Z,130.47
2019-02-17T12:22:20.051Z,129.90
2019-02-17T12:25:05.742Z,133.73
2019-02-17T12:27:47.325Z,133.53
2019-02-17T12:30:22.324Z,131.83
2019-02-17T12:32:52.474Z,133.50
2019-02-17T12:35:22.659Z,132.37
2019-02-17T12:37:52.788Z,134.13
2019-02-17T12:40:23.000Z,135.77
2019-02-17T12:42:53.172Z,135.83
2019-02-17T12:45:23.135Z,135.50
2019-02-17T12:47:58.127Z,131.53
2019-02-17T12:50:25.071Z,134.37
2019-02-17T12:52:55.224Z,129.33
2019-02-17T12:55:25.352Z,130.60
2019-02-17T12:57:55.523Z,128.53
2019-02-17T13:00:25.625Z,129.00
2019-02-17T13:02:55.752Z,132.60
2019-02-17T13:05:25.676Z,135.87
2019-02-17T13:07:55.829Z,132.30
2019-02-17T13:10:26.021Z,135.67
2019-02-17T13:12:56.260Z,134.33
2019-02-17T13:15:26.338Z,132.03
2019-02-17T13:17:56.230Z,135.20
2019-02-17T13:20:26.446Z,131.37
2019-02-17T13:22:56.480Z,138.83
2019-02-17T13:25:26.572Z,133.93
2019-02-17T13:27:56.640Z,136.63
2019-02-17T13:30:26.996Z,131.07
2019-02-17T13:32:57.238Z,134.47
2019-02-17T13:35:29.183Z,135.57
2019-02-17T13:37:59.378Z,133.13
2019-02-17T13:40:29.374Z,132.17
2019-02-17T13:42:59.543Z,133.43
2019-02-17T13:45:29.829Z,138.43
2019-02-17T13:48:00.083Z,131.80
2019-02-17T13:50:30.204Z,136.43
2019-02-17T13:53:00.312Z,134.73
2019-02-17T13:55:31.468Z,138.10
2019-02-17T13:58:02.497Z,137.83
2019-02-17T14:00:32.648Z,131.27
2019-02-17T14:03:04.520Z,131.53
2019-02-17T14:05:34.755Z,129.10
2019-02-17T14:08:07.648Z,130.07
2019-02-17T14:10:37.585Z,133.80
2019-02-17T14:13:07.784Z,131.50
2019-02-17T14:15:37.704Z,135.07
2019-02-17T14:18:07.809Z,131.60
2019-02-17T14:20:37.997Z,133.17
2019-02-17T14:23:08.103Z,131.97
2019-02-17T14:25:39.215Z,132.17
2019-02-17T14:28:09.318Z,134.77
2019-02-17T14:30:39.651Z,133.20
2019-02-17T14:33:09.653Z,133.03
2019-02-17T14:35:39.743Z,132.20
2019-02-17T14:38:09.919Z,130.87
2019-02-17T14:40:40.227Z,135.37
2019-02-17T14:43:10.512Z,135.00
2019-02-17T14:45:40.640Z,133.77
2019-02-17T14:48:11.416Z,132.50
2019-02-17T14:50:41.699Z,132.03
2019-02-17T14:53:11.817Z,132.90
2019-02-17T14:55:42.079Z,131.30
2019-02-17T14:58:12.299Z,133.20
2019-02-17T15:00:42.513Z,131.27
2019-02-17T15:03:12.901Z,132.67
2019-02-17T15:05:43.195Z,132.33
2019-02-17T15:08:13.632Z,129.50
2019-02-17T15:10:43.953Z,132.50
2019-02-17T15:13:14.733Z,132.30
2019-02-17T15:15:48.284Z,132.13
2019-02-17T15:18:19.473Z,132.60
2019-02-17T15:20:49.409Z,133.87
2019-02-17T15:23:20.564Z,128.97
2019-02-17T15:25:50.568Z,143.57
2019-02-17T15:28:20.727Z,129.93
2019-02-17T15:30:50.838Z,130.03
2019-02-17T15:33:21.074Z,140.30
2019-02-17T15:35:53.981Z,129.10
2019-02-17T15:38:24.296Z,128.93
2019-02-17T15:40:54.310Z,146.50
2019-02-17T15:43:24.439Z,132.13
2019-02-17T15:45:54.876Z,130.13
2019-02-17T15:48:24.981Z,127.03
2019-02-17T15:50:55.013Z,132.30
2019-02-17T15:53:25.111Z,131.80
2019-02-17T15:55:56.796Z,128.30
2019-02-17T15:58:27.195Z,130.80
2019-02-17T16:00:57.641Z,134.87
2019-02-17T16:03:28.198Z,132.50
2019-02-17T16:05:58.279Z,129.97
2019-02-17T16:08:28.251Z,129.17
2019-02-17T16:10:58.771Z,130.17
2019-02-17T16:13:29.243Z,126.23
2019-02-17T16:15:59.360Z,130.53
2019-02-17T16:18:29.536Z,132.60
2019-02-17T16:20:59.656Z,130.03
2019-02-17T16:23:29.785Z,127.47
2019-02-17T16:25:59.772Z,129.53
2019-02-17T16:28:29.908Z,128.10
2019-02-17T16:31:00.020Z,131.70
2019-02-17T16:33:30.010Z,127.50
2019-02-17T16:36:00.219Z,127.50
2019-02-17T16:38:30.410Z,128.90
2019-02-17T16:41:00.680Z,129.20
2019-02-17T16:43:30.961Z,126.83
2019-02-17T16:46:01.202Z,127.70
2019-02-17T16:48:31.448Z,135.43
2019-02-17T16:51:01.688Z,128.33
2019-02-17T16:53:31.943Z,130.83
2019-02-17T16:56:02.128Z,127.50
2019-02-17T16:58:32.691Z,127.30
2019-02-17T17:01:02.786Z,129.07
2019-02-17T17:03:32.864Z,129.10
2019-02-17T17:06:03.288Z,127.47
2019-02-17T17:08:33.939Z,127.73
2019-02-17T17:11:04.176Z,127.73
2019-02-17T17:13:34.571Z,125.53
2019-02-17T17:16:04.859Z,126.27
2019-02-17T17:18:35.197Z,127.63
2019-02-17T17:21:05.321Z,126.13
2019-02-17T17:23:35.667Z,127.33
2019-02-17T17:26:05.718Z,124.80
2019-02-17T17:28:35.813Z,133.00
2019-02-17T17:31:05.796Z,128.10
2019-02-17T17:33:35.851Z,126.90
2019-02-17T17:36:06.073Z,126.73
2019-02-17T17:38:36.091Z,125.87
2019-02-17T17:41:06.247Z,127.27
2019-02-17T17:43:36.514Z,126.33
2019-02-17T17:46:06.796Z,125.67
2019-02-17T17:48:38.089Z,124.30
2019-02-17T17:51:08.203Z,127.53
2019-02-17T17:53:38.665Z,128.33
2019-02-17T17:56:08.600Z,128.00
2019-02-17T17:58:38.795Z,134.77
2019-02-17T18:01:09.279Z,125.17
2019-02-17T18:03:39.400Z,122.43
2019-02-17T18:06:09.605Z,124.27
2019-02-17T18:08:40.353Z,123.93
2019-02-17T18:11:10.567Z,128.07
2019-02-17T18:13:40.635Z,123.73
2019-02-17T18:16:10.783Z,120.17
2019-02-17T18:18:40.975Z,126.40
2019-02-17T18:21:11.864Z,128.83
2019-02-17T18:23:43.372Z,122.90
2019-02-17T18:26:13.520Z,123.17
2019-02-17T18:28:43.900Z,123.60
2019-02-17T18:31:14.145Z,121.60
2019-02-17T18:33:44.768Z,126.30
2019-02-17T18:36:15.049Z,125.57
2019-02-17T18:38:45.508Z,125.90
2019-02-17T18:41:16.049Z,128.97
2019-02-17T18:43:46.214Z,127.63
2019-02-17T18:46:16.350Z,129.07
2019-02-17T18:48:46.528Z,127.57
2019-02-17T18:51:16.592Z,126.97
2019-02-17T18:53:46.668Z,128.73
2019-02-17T18:56:19.796Z,127.23
2019-02-17T18:58:49.944Z,133.43
2019-02-17T19:01:20.303Z,131.47
2019-02-17T19:03:59.446Z,126.20
2019-02-17T19:06:30.168Z,127.77
2019-02-17T19:09:00.176Z,122.37
2019-02-17T19:11:30.437Z,129.63
2019-02-17T19:14:03.244Z,124.57
2019-02-17T19:16:33.224Z,124.90
2019-02-17T19:19:03.272Z,126.47
2019-02-17T19:21:33.633Z,126.63
2019-02-17T19:24:03.664Z,124.57
2019-02-17T19:26:33.777Z,124.40
2019-02-17T19:29:03.946Z,125.93
2019-02-17T19:31:34.087Z,123.30
2019-02-17T19:34:04.430Z,124.87
2019-02-17T19:36:34.923Z,125.40
2019-02-17T19:39:06.444Z,125.53
2019-02-17T19:41:36.509Z,123.17
2019-02-17T19:44:06.690Z,123.87
2019-02-17T19:46:36.740Z,123.00
2019-02-17T19:49:06.844Z,122.70
2019-02-17T19:51:37.078Z,123.70
2019-02-17T19:54:07.304Z,123.33
2019-02-17T19:56:39.670Z,124.73
2019-02-17T19:59:09.156Z,129.83
2019-02-17T20:01:39.247Z,125.13
2019-02-17T20:04:20.656Z,123.10
2019-02-17T20:06:50.671Z,123.10
2019-02-17T20:09:20.764Z,121.67
2019-02-17T20:11:52.349Z,134.07
2019-02-17T20:14:23.668Z,130.77
2019-02-17T20:16:53.800Z,123.50
2019-02-17T20:19:25.642Z,122.87
2019-02-17T20:21:55.903Z,124.60
2019-02-17T20:24:25.938Z,123.23
2019-02-17T20:26:56.003Z,121.07
2019-02-17T20:29:26.026Z,122.90
2019-02-17T20:31:56.066Z,121.37
2019-02-17T20:34:26.151Z,120.67
2019-02-17T20:36:56.351Z,122.50
2019-02-17T20:39:26.395Z,119.73
2019-02-17T20:41:56.615Z,120.30
2019-02-17T20:44:26.613Z,121.93
2019-02-17T20:46:56.708Z,126.37
2019-02-17T20:49:27.463Z,123.53
2019-02-17T20:51:57.758Z,118.00
2019-02-17T20:54:28.498Z,123.50
2019-02-17T20:56:59.301Z,119.87
2019-02-17T20:59:29.616Z,124.93
2019-02-17T21:02:00.499Z,118.87
2019-02-17T21:04:31.437Z,121.77
2019-02-17T21:07:01.522Z,119.93
2019-02-17T21:09:32.329Z,125.17
2019-02-17T21:12:03.084Z,122.90
2019-02-17T21:14:33.786Z,123.63
2019-02-17T21:17:04.933Z,119.67
2019-02-17T21:19:35.452Z,122.07
2019-02-17T21:22:06.779Z,120.37
2019-02-17T21:24:37.602Z,120.97
2019-02-17T21:27:08.175Z,124.17
2019-02-17T21:29:39.099Z,123.43
2019-02-17T21:32:09.845Z,121.30
2019-02-17T21:34:40.624Z,118.43
2019-02-17T21:37:10.871Z,122.60
2019-02-17T21:39:41.151Z,122.93
2019-02-17T21:42:11.331Z,119.87
2019-02-17T21:44:41.440Z,125.23
2019-02-17T21:47:11.576Z,120.60
2019-02-17T21:49:41.753Z,119.03
2019-02-17T21:52:11.832Z,124.73
2019-02-17T21:54:42.007Z,119.23
2019-02-17T21:57:11.995Z,120.80
2019-02-17T21:59:42.318Z,120.47
2019-02-17T22:02:13.360Z,118.10
2019-02-17T22:04:43.414Z,118.13
2019-02-17T22:07:13.628Z,143.70
2019-02-17T22:09:43.696Z,118.53
2019-02-17T22:12:13.946Z,125.77
2019-02-17T22:14:45.078Z,117.53
2019-02-17T22:17:15.209Z,121.73
2019-02-17T22:19:45.470Z,123.23
2019-02-17T22:22:15.621Z,119.73
2019-02-17T22:24:45.771Z,119.77
2019-02-17T22:27:15.895Z,118.33
2019-02-17T22:29:46.020Z,117.27
2019-02-17T22:32:16.053Z,119.10
2019-02-17T22:34:46.040Z,121.97
2019-02-17T22:37:16.103Z,119.17
2019-02-17T22:39:46.100Z,119.80
2019-02-17T22:42:16.171Z,115.77
2019-02-17T22:44:46.186Z,120.00
2019-02-17T22:47:16.183Z,117.80
2019-02-17T22:49:46.319Z,118.17
2019-02-17T22:52:16.629Z,116.83
2019-02-17T22:54:46.752Z,119.10
2019-02-17T22:57:16.846Z,119.77
2019-02-17T22:59:46.815Z,120.53
2019-02-17T23:02:16.921Z,120.80
2019-02-17T23:04:47.157Z,116.50
2019-02-17T23:07:17.397Z,124.47
2019-02-17T23:09:47.574Z,118.20
2019-02-17T23:12:17.743Z,117.97
2019-02-17T23:14:47.660Z,121.17
2019-02-17T23:17:17.758Z,120.77
2019-02-17T23:19:47.847Z,122.63
2019-02-17T23:22:17.875Z,117.70
2019-02-17T23:24:48.504Z,121.60
2019-02-17T23:27:18.634Z,120.63
2019-02-17T23:29:48.855Z,119.73
2019-02-17T23:32:18.967Z,119.13
2019-02-17T23:34:48.936Z,117.43
2019-02-17T23:37:19.012Z,119.33
2019-02-17T23:39:49.098Z,120.40
2019-02-17T23:42:19.208Z,117.70
2019-02-17T23:44:51.007Z,119.83
2019-02-17T23:47:22.884Z,119.47
2019-02-17T23:49:53.123Z,121.77
2019-02-17T23:52:23.244Z,127.63
2019-02-17T23:54:53.468Z,119.10
2019-02-17T23:57:23.714Z,119.20
2019-02-17T23:59:53.882Z,119.23
